Airfield :
LOGIN :

Register | Disclaimer

   EN    FR    IT 

 










Legend :    VFR   Marginal VFR   IFR   Intensive IFR   Very Intensive IFR
Visi :
Ceiling :
>= 8 km
>= 3000ft
5 to 8 km
1000 to 3000 ft
1500m to 5 km
500 to 1000 ft
800 to 1500m
200 to 500 ft
< 800m
< 200 ft
Symbols :   Thunderstorms  Fog  Heavy snow  Heavy precipitations  Wind > 20 kt
SIGMETs :     Misc.  Thunderstorms  Icing  Turbulence  Mountain Waves  Volcanic Ashes







- Airport Elevation : 160 ft
- IATA code : FMO


EDDG - Münster Osnabrück Int.

CURRENT METAR :
  • 231750Z 18008KT 150V220 9999 BKN023 08/05 Q1018 NOSIG

EXPIRED METARs :
  • 231720Z 19008KT 150V220 9999 BKN024 08/05 Q1018 NOSIG
  • 231650Z 19012KT 9999 SCT019 BKN025 08/05 Q1018 NOSIG
  • 231620Z 19010KT 150V230 9999 -RA BKN027 BKN040 08/05 Q1018 NOSIG
  • 231550Z 19009KT 160V220 9999 BKN045 09/04 Q1018 NOSIG
  • 231520Z 19009KT 150V220 9999 BKN041 09/04 Q1019 NOSIG

TAF TAF EDDG
Valid from the 23 at 18:00 until the 24 at 18:00 UTC


231700Z 2318/2418 20012KT 9999 BKN020
TEMPO 2318/2408 21015G25KT
TEMPO 2320/2403 4000 -RA BKN008
BECMG 2408/2411 20015G25KT
TEMPO 2411/2418 21020G30KT
No reported NOTAMs for that airfield.



MET'MAP, your aeronautical weather chart ! - Copyright ORBIFLY December 2007 - Disclaimer

ORBIFLY MET'MAP TEAM :

Programming & Development : Alexandra Zaïnal
Concept & Development : Baudouin d'Aumeries
Co-Development & Prog : Marc-Olivier Méhu
Technical & hardware support : Manuel Goepfert

Contact : metmap@orbifly.com




SOURCES & CREDITS :

   NOAA